sensor_id;sensor_type;location;lat;lon;timestamp;pressure;altitude;pressure_sealevel;temperature;humidity
38939;BME280;24211;49.980;19.776;2023-05-19T00:08:42;100300.66;;;9.52;100.00
38939;BME280;24211;49.980;19.776;2023-05-19T00:11:19;100291.22;;;9.56;100.00
38939;BME280;24211;49.980;19.776;2023-05-19T00:13:48;100296.19;;;9.59;100.00
38939;BME280;24211;49.980;19.776;2023-05-19T00:16:17;100286.94;;;9.55;100.00
38939;BME280;24211;49.980;19.776;2023-05-19T00:18:44;100279.94;;;9.54;100.00
38939;BME280;24211;49.980;19.776;2023-05-19T00:21:13;100279.94;;;9.54;100.00
38939;BME280;24211;49.980;19.776;2023-05-19T00:23:41;100277.47;;;9.52;100.00
38939;BME280;24211;49.980;19.776;2023-05-19T00:26:09;100281.72;;;9.47;100.00
38939;BME280;24211;49.980;19.776;2023-05-19T00:28:38;100275.00;;;9.51;100.00
38939;BME280;24211;49.980;19.776;2023-05-19T00:31:05;100270.91;;;9.55;100.00
38939;BME280;24211;49.980;19.776;2023-05-19T00:33:33;100281.38;;;9.56;100.00
38939;BME280;24211;49.980;19.776;2023-05-19T00:36:02;100267.03;;;9.57;100.00
38939;BME280;24211;49.980;19.776;2023-05-19T00:38:31;100269.50;;;9.59;100.00
38939;BME280;24211;49.980;19.776;2023-05-19T00:41:00;100263.34;;;9.58;100.00
38939;BME280;24211;49.980;19.776;2023-05-19T00:43:27;100262.53;;;9.58;100.00
38939;BME280;24211;49.980;19.776;2023-05-19T00:45:56;100267.22;;;9.56;100.00
38939;BME280;24211;49.980;19.776;2023-05-19T00:48:24;100262.53;;;9.58;100.00
38939;BME280;24211;49.980;19.776;2023-05-19T00:50:57;100260.50;;;9.60;100.00
38939;BME280;24211;49.980;19.776;2023-05-19T00:53:32;100267.63;;;9.53;100.00
38939;BME280;24211;49.980;19.776;2023-05-19T00:56:01;100266.41;;;9.55;100.00
38939;BME280;24211;49.980;19.776;2023-05-19T00:58:32;100265.19;;;9.58;100.00
38939;BME280;24211;49.980;19.776;2023-05-19T01:00:59;100259.03;;;9.57;100.00
38939;BME280;24211;49.980;19.776;2023-05-19T01:03:33;100254.91;;;9.55;100.00
38939;BME280;24211;49.980;19.776;2023-05-19T01:06:03;100253.88;;;9.56;100.00
38939;BME280;24211;49.980;19.776;2023-05-19T01:08:36;100259.63;;;9.53;100.00
38939;BME280;24211;49.980;19.776;2023-05-19T01:11:07;100262.09;;;9.54;100.00
38939;BME280;24211;49.980;19.776;2023-05-19T01:13:35;100269.69;;;9.51;100.00
38939;BME280;24211;49.980;19.776;2023-05-19T01:31:00;100257.13;;;9.51;100.00
38939;BME280;24211;49.980;19.776;2023-05-19T01:33:32;100249.97;;;9.52;100.00
38939;BME280;24211;49.980;19.776;2023-05-19T01:36:02;100249.34;;;9.50;100.00
38939;BME280;24211;49.980;19.776;2023-05-19T01:38:33;100245.41;;;9.46;100.00
38939;BME280;24211;49.980;19.776;2023-05-19T01:41:02;100243.13;;;9.43;100.00
38939;BME280;24211;49.980;19.776;2023-05-19T01:43:30;100243.75;;;9.45;100.00
38939;BME280;24211;49.980;19.776;2023-05-19T01:46:01;100241.72;;;9.47;100.00
38939;BME280;24211;49.980;19.776;2023-05-19T01:48:29;100240.09;;;9.46;100.00
38939;BME280;24211;49.980;19.776;2023-05-19T01:50:57;100234.09;;;9.44;100.00
38939;BME280;24211;49.980;19.776;2023-05-19T01:53:25;100243.13;;;9.43;100.00
38939;BME280;24211;49.980;19.776;2023-05-19T01:55:54;100242.34;;;9.49;100.00
38939;BME280;24211;49.980;19.776;2023-05-19T02:13:55;100234.09;;;9.44;100.00
38939;BME280;24211;49.980;19.776;2023-05-19T02:16:28;100237.00;;;9.49;100.00
38939;BME280;24211;49.980;19.776;2023-05-19T02:18:55;100239.50;;;9.50;100.00
38939;BME280;24211;49.980;19.776;2023-05-19T02:21:23;100243.63;;;9.53;100.00
38939;BME280;24211;49.980;19.776;2023-05-19T02:23:50;100235.78;;;9.51;100.00
38939;BME280;24211;49.980;19.776;2023-05-19T02:26:19;100234.91;;;9.44;100.00
38939;BME280;24211;49.980;19.776;2023-05-19T02:28:47;100236.19;;;9.48;100.00
38939;BME280;24211;49.980;19.776;2023-05-19T02:31:14;100232.06;;;9.46;100.00
38939;BME280;24211;49.980;19.776;2023-05-19T02:33:41;100229.19;;;9.47;100.00
38939;BME280;24211;49.980;19.776;2023-05-19T02:36:09;100232.06;;;9.46;100.00
38939;BME280;24211;49.980;19.776;2023-05-19T02:38:36;100236.13;;;9.42;100.00
38939;BME280;24211;49.980;19.776;2023-05-19T02:41:03;100236.13;;;9.42;100.00
38939;BME280;24211;49.980;19.776;2023-05-19T03:03:38;100233.66;;;9.40;100.00
38939;BME280;24211;49.980;19.776;2023-05-19T03:06:05;100240.41;;;9.36;100.00
38939;BME280;24211;49.980;19.776;2023-05-19T03:12:47;100234.50;;;9.41;100.00
38939;BME280;24211;49.980;19.776;2023-05-19T03:15:14;100232.47;;;9.43;100.00
38939;BME280;24211;49.980;19.776;2023-05-19T03:17:42;100234.09;;;9.44;100.00
38939;BME280;24211;49.980;19.776;2023-05-19T03:20:10;100230.41;;;9.45;100.00
38939;BME280;24211;49.980;19.776;2023-05-19T03:22:38;100225.91;;;9.45;100.00
38939;BME280;24211;49.980;19.776;2023-05-19T03:25:10;100227.97;;;9.43;100.00
38939;BME280;24211;49.980;19.776;2023-05-19T03:27:37;100226.28;;;9.42;100.00
38939;BME280;24211;49.980;19.776;2023-05-19T03:30:06;100229.56;;;9.38;100.00
38939;BME280;24211;49.980;19.776;2023-05-19T03:32:40;100238.19;;;9.40;100.00
38939;BME280;24211;49.980;19.776;2023-05-19T03:45:22;100239.72;;;9.28;100.00
38939;BME280;24211;49.980;19.776;2023-05-19T03:47:57;100249.56;;;9.27;100.00
38939;BME280;24211;49.980;19.776;2023-05-19T03:50:59;100240.34;;;9.30;100.00
38939;BME280;24211;49.980;19.776;2023-05-19T03:53:28;100244.53;;;9.39;100.00
38939;BME280;24211;49.980;19.776;2023-05-19T03:55:56;100250.66;;;9.33;100.00
38939;BME280;24211;49.980;19.776;2023-05-19T03:58:23;100242.84;;;9.31;100.00
38939;BME280;24211;49.980;19.776;2023-05-19T04:00:52;100245.56;;;9.38;100.00
38939;BME280;24211;49.980;19.776;2023-05-19T04:03:20;100246.94;;;9.34;100.00
38939;BME280;24211;49.980;19.776;2023-05-19T04:05:47;100240.84;;;9.40;100.00
38939;BME280;24211;49.980;19.776;2023-05-19T04:08:14;100247.44;;;9.44;100.00
38939;BME280;24211;49.980;19.776;2023-05-19T04:10:42;100254.91;;;9.27;100.00
38939;BME280;24211;49.980;19.776;2023-05-19T04:13:36;100248.34;;;9.30;100.00
38939;BME280;24211;49.980;19.776;2023-05-19T04:16:39;100250.25;;;9.36;100.00
38939;BME280;24211;49.980;19.776;2023-05-19T04:19:08;100244.75;;;9.44;100.00
38939;BME280;24211;49.980;19.776;2023-05-19T04:21:36;100255.00;;;9.40;100.00
38939;BME280;24211;49.980;19.776;2023-05-19T04:24:04;100250.50;;;9.41;100.00
38939;BME280;24211;49.980;19.776;2023-05-19T04:26:34;100242.81;;;9.59;100.00
38939;BME280;24211;49.980;19.776;2023-05-19T04:29:03;100249.00;;;9.66;100.00
38939;BME280;24211;49.980;19.776;2023-05-19T04:31:31;100244.47;;;9.60;100.00
38939;BME280;24211;49.980;19.776;2023-05-19T04:34:01;100242.44;;;9.62;100.00
38939;BME280;24211;49.980;19.776;2023-05-19T04:36:28;100249.56;;;9.55;100.00
38939;BME280;24211;49.980;19.776;2023-05-19T04:38:56;100239.56;;;9.63;100.00
38939;BME280;24211;49.980;19.776;2023-05-19T04:41:29;100242.91;;;9.72;100.00
38939;BME280;24211;49.980;19.776;2023-05-19T04:43:58;100246.53;;;9.58;100.00
38939;BME280;24211;49.980;19.776;2023-05-19T04:46:26;100241.97;;;9.58;100.00
38939;BME280;24211;49.980;19.776;2023-05-19T04:48:54;100247.38;;;9.65;100.00
38939;BME280;24211;49.980;19.776;2023-05-19T04:51:23;100245.56;;;9.72;100.00
38939;BME280;24211;49.980;19.776;2023-05-19T04:53:59;100246.56;;;9.64;100.00
38939;BME280;24211;49.980;19.776;2023-05-19T04:56:32;100245.34;;;9.67;100.00
38939;BME280;24211;49.980;19.776;2023-05-19T04:59:00;100250.28;;;9.70;100.00
38939;BME280;24211;49.980;19.776;2023-05-19T05:01:28;100246.59;;;9.71;100.00
38939;BME280;24211;49.980;19.776;2023-05-19T05:03:57;100246.06;;;9.82;100.00
38939;BME280;24211;49.980;19.776;2023-05-19T05:06:25;100237.69;;;9.98;100.00
38939;BME280;24211;49.980;19.776;2023-05-19T05:08:54;100243.84;;;9.92;100.00
38939;BME280;24211;49.980;19.776;2023-05-19T05:11:24;100235.25;;;10.03;100.00
38939;BME280;24211;49.980;19.776;2023-05-19T05:13:53;100237.78;;;10.11;100.00
38939;BME280;24211;49.980;19.776;2023-05-19T05:16:27;100240.22;;;10.06;100.00
38939;BME280;24211;49.980;19.776;2023-05-19T05:18:57;100243.50;;;10.08;100.00
38939;BME280;24211;49.980;19.776;2023-05-19T05:21:24;100244.78;;;10.12;100.00
38939;BME280;24211;49.980;19.776;2023-05-19T05:23:53;100244.00;;;10.18;100.00
38939;BME280;24211;49.980;19.776;2023-05-19T05:26:29;100248.53;;;10.24;100.00
38939;BME280;24211;49.980;19.776;2023-05-19T05:28:56;100248.78;;;10.29;100.00
38939;BME280;24211;49.980;19.776;2023-05-19T05:31:24;100254.75;;;10.31;100.00
38939;BME280;24211;49.980;19.776;2023-05-19T05:33:52;100254.50;;;10.26;100.00
38939;BME280;24211;49.980;19.776;2023-05-19T05:36:23;100251.03;;;10.32;100.00
38939;BME280;24211;49.980;19.776;2023-05-19T05:38:50;100253.09;;;10.37;100.00
38939;BME280;24211;49.980;19.776;2023-05-19T05:41:17;100254.38;;;10.47;100.00
38939;BME280;24211;49.980;19.776;2023-05-19T05:43:47;100248.19;;;10.47;100.00
38939;BME280;24211;49.980;19.776;2023-05-19T05:46:14;100250.06;;;10.46;100.00
38939;BME280;24211;49.980;19.776;2023-05-19T05:48:42;100254.38;;;10.47;100.00
38939;BME280;24211;49.980;19.776;2023-05-19T05:51:10;100251.50;;;10.49;100.00
38939;BME280;24211;49.980;19.776;2023-05-19T05:53:40;100254.38;;;10.54;100.00
38939;BME280;24211;49.980;19.776;2023-05-19T05:56:12;100248.44;;;10.59;100.00
38939;BME280;24211;49.980;19.776;2023-05-19T05:58:48;100258.94;;;10.67;100.00
38939;BME280;24211;49.980;19.776;2023-05-19T06:01:16;100254.41;;;10.74;100.00
38939;BME280;24211;49.980;19.776;2023-05-19T06:03:44;100258.97;;;10.80;100.00
38939;BME280;24211;49.980;19.776;2023-05-19T06:06:16;100262.47;;;10.87;100.00
38939;BME280;24211;49.980;19.776;2023-05-19T06:08:44;100256.13;;;10.88;100.00
38939;BME280;24211;49.980;19.776;2023-05-19T06:11:11;100264.75;;;10.90;100.00
38939;BME280;24211;49.980;19.776;2023-05-19T06:13:40;100268.44;;;10.89;100.00
38939;BME280;24211;49.980;19.776;2023-05-19T06:16:12;100271.94;;;10.96;100.00
38939;BME280;24211;49.980;19.776;2023-05-19T06:18:45;100269.09;;;10.91;100.00
38939;BME280;24211;49.980;19.776;2023-05-19T06:21:13;100270.94;;;10.97;100.00
38939;BME280;24211;49.980;19.776;2023-05-19T06:23:42;100273.00;;;11.08;100.00
38939;BME280;24211;49.980;19.776;2023-05-19T06:26:10;100273.63;;;11.10;100.00
38939;BME280;24211;49.980;19.776;2023-05-19T06:28:37;100274.66;;;11.22;100.00
38939;BME280;24211;49.980;19.776;2023-05-19T06:31:05;100274.66;;;11.22;100.00
38939;BME280;24211;49.980;19.776;2023-05-19T06:33:59;100271.34;;;11.33;100.00
38939;BME280;24211;49.980;19.776;2023-05-19T06:36:27;100273.84;;;11.41;100.00
38939;BME280;24211;49.980;19.776;2023-05-19T06:38:56;100269.94;;;11.37;100.00
38939;BME280;24211;49.980;19.776;2023-05-19T06:41:25;100273.81;;;11.48;100.00
38939;BME280;24211;49.980;19.776;2023-05-19T06:43:52;100264.34;;;11.58;100.00
38939;BME280;24211;49.980;19.776;2023-05-19T06:46:21;100271.75;;;11.63;100.00
38939;BME280;24211;49.980;19.776;2023-05-19T06:48:48;100276.09;;;11.70;100.00
38939;BME280;24211;49.980;19.776;2023-05-19T06:51:19;100271.53;;;11.77;100.00
38939;BME280;24211;49.980;19.776;2023-05-19T06:53:53;100277.31;;;11.81;100.00
38939;BME280;24211;49.980;19.776;2023-05-19T06:56:21;100273.81;;;11.80;100.00
38939;BME280;24211;49.980;19.776;2023-05-19T06:58:50;100276.28;;;11.82;100.00
38939;BME280;24211;49.980;19.776;2023-05-19T07:01:19;100268.84;;;11.91;100.00
38939;BME280;24211;49.980;19.776;2023-05-19T07:03:53;100279.97;;;11.88;100.00
38939;BME280;24211;49.980;19.776;2023-05-19T07:06:20;100271.31;;;11.99;100.00
38939;BME280;24211;49.980;19.776;2023-05-19T07:08:48;100270.25;;;12.00;100.00
38939;BME280;24211;49.980;19.776;2023-05-19T07:11:16;100271.69;;;12.09;100.00
38939;BME280;24211;49.980;19.776;2023-05-19T07:13:44;100267.53;;;12.13;100.00
38939;BME280;24211;49.980;19.776;2023-05-19T07:16:15;100264.25;;;12.11;100.00
38939;BME280;24211;49.980;19.776;2023-05-19T07:18:44;100262.38;;;12.11;100.00
38939;BME280;24211;49.980;19.776;2023-05-19T07:21:11;100257.22;;;12.16;100.00
38939;BME280;24211;49.980;19.776;2023-05-19T07:23:38;100258.81;;;12.24;100.00
38939;BME280;24211;49.980;19.776;2023-05-19T07:26:05;100254.91;;;12.33;100.00
38939;BME280;24211;49.980;19.776;2023-05-19T07:28:33;100262.06;;;12.39;100.00
38939;BME280;24211;49.980;19.776;2023-05-19T07:31:00;100257.19;;;12.23;100.00
38939;BME280;24211;49.980;19.776;2023-05-19T07:33:27;100260.44;;;12.31;100.00
38939;BME280;24211;49.980;19.776;2023-05-19T07:35:54;100257.50;;;12.46;100.00
38939;BME280;24211;49.980;19.776;2023-05-19T07:38:22;100258.13;;;12.48;100.00
38939;BME280;24211;49.980;19.776;2023-05-19T07:40:49;100257.50;;;12.46;100.00
38939;BME280;24211;49.980;19.776;2023-05-19T07:43:17;100253.72;;;12.60;100.00
38939;BME280;24211;49.980;19.776;2023-05-19T07:45:44;100258.63;;;12.70;100.00
38939;BME280;24211;49.980;19.776;2023-05-19T07:48:12;100263.59;;;12.66;100.00
38939;BME280;24211;49.980;19.776;2023-05-19T07:50:39;100252.44;;;12.69;100.00
38939;BME280;24211;49.980;19.776;2023-05-19T07:53:06;100263.59;;;12.66;100.00
38939;BME280;24211;49.980;19.776;2023-05-19T07:55:33;100264.97;;;12.75;100.00
38939;BME280;24211;49.980;19.776;2023-05-19T07:58:01;100263.69;;;12.84;100.00
38939;BME280;24211;49.980;19.776;2023-05-19T08:00:28;100257.38;;;12.72;100.00
38939;BME280;24211;49.980;19.776;2023-05-19T08:02:55;100252.34;;;12.82;100.00
38939;BME280;24211;49.980;19.776;2023-05-19T08:05:23;100252.78;;;12.79;100.00
38939;BME280;24211;49.980;19.776;2023-05-19T08:07:52;100246.09;;;12.88;100.00
38939;BME280;24211;49.980;19.776;2023-05-19T08:10:19;100244.13;;;12.77;100.00
38939;BME280;24211;49.980;19.776;2023-05-19T08:12:46;100256.06;;;12.81;100.00
38939;BME280;24211;49.980;19.776;2023-05-19T08:15:13;100250.63;;;12.94;100.00
38939;BME280;24211;49.980;19.776;2023-05-19T08:17:40;100252.66;;;12.99;100.00
38939;BME280;24211;49.980;19.776;2023-05-19T08:20:08;100253.97;;;12.90;100.00
38939;BME280;24211;49.980;19.776;2023-05-19T08:22:36;100257.63;;;12.95;100.00
38939;BME280;24211;49.980;19.776;2023-05-19T08:25:04;100255.81;;;13.21;100.00
38939;BME280;24211;49.980;19.776;2023-05-19T08:27:32;100252.09;;;13.22;100.00
38939;BME280;24211;49.980;19.776;2023-05-19T08:30:00;100253.72;;;13.23;100.00
38939;BME280;24211;49.980;19.776;2023-05-19T08:32:28;100254.81;;;13.40;100.00
38939;BME280;24211;49.980;19.776;2023-05-19T08:34:55;100251.75;;;13.61;100.00
38939;BME280;24211;49.980;19.776;2023-05-19T08:37:23;100255.34;;;13.73;100.00
38939;BME280;24211;49.980;19.776;2023-05-19T08:39:50;100251.59;;;13.74;100.00
38939;BME280;24211;49.980;19.776;2023-05-19T08:42:17;100254.31;;;13.92;100.00
38939;BME280;24211;49.980;19.776;2023-05-19T08:44:44;100257.16;;;13.97;100.00
38939;BME280;24211;49.980;19.776;2023-05-19T08:47:13;100259.38;;;13.82;100.00
38939;BME280;24211;49.980;19.776;2023-05-19T08:49:45;100261.97;;;13.89;100.00
38939;BME280;24211;49.980;19.776;2023-05-19T08:52:31;100266.09;;;13.91;100.00
38939;BME280;24211;49.980;19.776;2023-05-19T08:55:08;100261.03;;;14.01;100.00
38939;BME280;24211;49.980;19.776;2023-05-19T08:57:39;100259.06;;;14.08;100.00
38939;BME280;24211;49.980;19.776;2023-05-19T09:00:08;100259.38;;;14.18;100.00
38939;BME280;24211;49.980;19.776;2023-05-19T09:02:38;100260.59;;;14.22;100.00
38939;BME280;24211;49.980;19.776;2023-05-19T09:05:26;100261.19;;;14.24;100.00
38939;BME280;24211;49.980;19.776;2023-05-19T09:07:54;100265.50;;;14.25;100.00
38939;BME280;24211;49.980;19.776;2023-05-19T09:10:21;100269.69;;;14.21;100.00
38939;BME280;24211;49.980;19.776;2023-05-19T09:12:49;100272.22;;;14.16;100.00
38939;BME280;24211;49.980;19.776;2023-05-19T09:15:17;100263.47;;;14.21;100.00
38939;BME280;24211;49.980;19.776;2023-05-19T09:17:45;100273.88;;;14.17;100.00
38939;BME280;24211;49.980;19.776;2023-05-19T09:20:16;100270.06;;;14.07;100.00
38939;BME280;24211;49.980;19.776;2023-05-19T09:22:44;100275.72;;;13.99;100.00
38939;BME280;24211;49.980;19.776;2023-05-19T09:25:22;100270.75;;;14.02;100.00
38939;BME280;24211;49.980;19.776;2023-05-19T09:27:50;100266.56;;;14.06;100.00
38939;BME280;24211;49.980;19.776;2023-05-19T09:30:17;100267.50;;;13.94;100.00
38939;BME280;24211;49.980;19.776;2023-05-19T09:32:45;100266.19;;;14.03;100.00
38939;BME280;24211;49.980;19.776;2023-05-19T09:35:15;100270.34;;;13.99;100.00
38939;BME280;24211;49.980;19.776;2023-05-19T09:37:43;100266.75;;;13.87;100.00
38939;BME280;24211;49.980;19.776;2023-05-19T09:40:14;100270.44;;;13.92;100.00
38939;BME280;24211;49.980;19.776;2023-05-19T09:42:42;100257.06;;;14.04;100.00
38939;BME280;24211;49.980;19.776;2023-05-19T09:45:10;100264.97;;;13.99;100.00
38939;BME280;24211;49.980;19.776;2023-05-19T09:47:40;100254.09;;;14.12;100.00
38939;BME280;24211;49.980;19.776;2023-05-19T09:50:10;100254.00;;;14.18;100.00
38939;BME280;24211;49.980;19.776;2023-05-19T09:52:43;100264.91;;;14.23;100.00
38939;BME280;24211;49.980;19.776;2023-05-19T09:55:12;100261.03;;;14.19;100.00
38939;BME280;24211;49.980;19.776;2023-05-19T09:57:39;100264.69;;;14.25;100.00
38939;BME280;24211;49.980;19.776;2023-05-19T10:00:09;100260.09;;;14.32;100.00
38939;BME280;24211;49.980;19.776;2023-05-19T10:02:47;100260.00;;;14.38;100.00
38939;BME280;24211;49.980;19.776;2023-05-19T10:05:18;100256.84;;;14.42;100.00
38939;BME280;24211;49.980;19.776;2023-05-19T10:07:51;100258.63;;;14.48;100.00
38939;BME280;24211;49.980;19.776;2023-05-19T10:10:19;100260.19;;;14.55;100.00
38939;BME280;24211;49.980;19.776;2023-05-19T10:12:48;100249.63;;;14.42;100.00
38939;BME280;24211;49.980;19.776;2023-05-19T10:15:17;100252.78;;;14.51;100.00
38939;BME280;24211;49.980;19.776;2023-05-19T10:17:49;100249.78;;;14.59;100.00
38939;BME280;24211;49.980;19.776;2023-05-19T10:20:17;100247.09;;;14.59;100.00
38939;BME280;24211;49.980;19.776;2023-05-19T10:22:45;100254.72;;;14.62;100.00
38939;BME280;24211;49.980;19.776;2023-05-19T10:25:13;100248.34;;;14.45;100.00
38939;BME280;24211;49.980;19.776;2023-05-19T10:27:47;100251.03;;;14.45;100.00
38939;BME280;24211;49.980;19.776;2023-05-19T10:30:27;100245.13;;;14.66;100.00
38939;BME280;24211;49.980;19.776;2023-05-19T10:32:56;100247.69;;;14.61;100.00
38939;BME280;24211;49.980;19.776;2023-05-19T10:38:57;100241.78;;;14.82;100.00
38939;BME280;24211;49.980;19.776;2023-05-19T10:45:15;100246.66;;;15.03;100.00
38939;BME280;24211;49.980;19.776;2023-05-19T10:47:43;100238.34;;;15.16;100.00
38939;BME280;24211;49.980;19.776;2023-05-19T10:50:11;100241.03;;;15.16;100.00
38939;BME280;24211;49.980;19.776;2023-05-19T10:52:39;100233.47;;;15.25;100.00
38939;BME280;24211;49.980;19.776;2023-05-19T10:55:08;100240.63;;;15.42;100.00
38939;BME280;24211;49.980;19.776;2023-05-19T10:57:55;100231.75;;;15.53;100.00
38939;BME280;24211;49.980;19.776;2023-05-19T11:00:28;100235.25;;;15.42;100.00
38939;BME280;24211;49.980;19.776;2023-05-19T11:03:16;100240.59;;;15.19;100.00
38939;BME280;24211;49.980;19.776;2023-05-19T11:05:44;100241.78;;;15.35;100.00
38939;BME280;24211;49.980;19.776;2023-05-19T11:08:12;100233.72;;;15.35;100.00
38939;BME280;24211;49.980;19.776;2023-05-19T11:10:43;100237.09;;;15.42;100.00
38939;BME280;24211;49.980;19.776;2023-05-19T11:13:20;100242.75;;;15.40;100.00
38939;BME280;24211;49.980;19.776;2023-05-19T11:15:49;100240.38;;;15.32;100.00
38939;BME280;24211;49.980;19.776;2023-05-19T11:18:18;100235.25;;;15.42;100.00
38939;BME280;24211;49.980;19.776;2023-05-19T11:20:54;100236.16;;;15.36;100.00
38939;BME280;24211;49.980;19.776;2023-05-19T11:23:24;100230.41;;;15.21;100.00
38939;BME280;24211;49.980;19.776;2023-05-19T11:25:52;100243.66;;;15.34;100.00
38939;BME280;24211;49.980;19.776;2023-05-19T11:28:22;100243.47;;;15.47;100.00
38939;BME280;24211;49.980;19.776;2023-05-19T11:30:56;100235.50;;;15.52;100.00
38939;BME280;24211;49.980;19.776;2023-05-19T11:33:25;100245.34;;;15.58;100.00
38939;BME280;24211;49.980;19.776;2023-05-19T11:35:57;100247.22;;;15.46;100.00
38939;BME280;24211;49.980;19.776;2023-05-19T11:38:27;100241.81;;;15.58;100.00
38939;BME280;24211;49.980;19.776;2023-05-19T11:40:56;100244.38;;;15.88;100.00
38939;BME280;24211;49.980;19.776;2023-05-19T11:43:24;100240.63;;;15.89;100.00
38939;BME280;24211;49.980;19.776;2023-05-19T11:45:53;100232.19;;;15.97;100.00
38939;BME280;24211;49.980;19.776;2023-05-19T11:48:23;100230.91;;;15.99;100.00
38939;BME280;24211;49.980;19.776;2023-05-19T11:50:51;100240.84;;;15.99;100.00
38939;BME280;24211;49.980;19.776;2023-05-19T11:53:18;100230.50;;;16.19;100.00
38939;BME280;24211;49.980;19.776;2023-05-19T11:55:47;100229.53;;;16.25;100.00
38939;BME280;24211;49.980;19.776;2023-05-19T11:58:15;100234.59;;;16.21;100.00
38939;BME280;24211;49.980;19.776;2023-05-19T12:00:44;100246.13;;;15.94;100.00
38939;BME280;24211;49.980;19.776;2023-05-19T12:03:13;100242.47;;;16.00;100.00
38939;BME280;24211;49.980;19.776;2023-05-19T12:05:46;100245.50;;;16.15;100.00
38939;BME280;24211;49.980;19.776;2023-05-19T12:08:18;100243.78;;;16.09;100.00
38939;BME280;24211;49.980;19.776;2023-05-19T12:10:49;100237.47;;;15.92;100.00
38939;BME280;24211;49.980;19.776;2023-05-19T12:13:19;100244.72;;;15.91;100.00
38939;BME280;24211;49.980;19.776;2023-05-19T12:15:49;100243.00;;;15.74;100.00
38939;BME280;24211;49.980;19.776;2023-05-19T12:18:18;100239.72;;;15.72;100.00
38939;BME280;24211;49.980;19.776;2023-05-19T12:20:45;100240.63;;;15.89;100.00
38939;BME280;24211;49.980;19.776;2023-05-19T12:23:13;100238.53;;;15.91;100.00
38939;BME280;24211;49.980;19.776;2023-05-19T12:25:40;100238.28;;;16.04;100.00
38939;BME280;24211;49.980;19.776;2023-05-19T12:28:08;100236.88;;;16.01;100.00
38939;BME280;24211;49.980;19.776;2023-05-19T12:30:35;100232.66;;;15.94;100.00
38939;BME280;24211;49.980;19.776;2023-05-19T12:33:03;100233.59;;;15.99;100.00
38939;BME280;24211;49.980;19.776;2023-05-19T12:35:31;100231.00;;;15.93;100.00
38939;BME280;24211;49.980;19.776;2023-05-19T12:38:13;100230.47;;;15.67;100.00
38939;BME280;24211;49.980;19.776;2023-05-19T12:40:42;100227.28;;;15.70;100.00
38939;BME280;24211;49.980;19.776;2023-05-19T12:43:21;100222.25;;;15.74;100.00
38939;BME280;24211;49.980;19.776;2023-05-19T12:45:49;100219.91;;;15.66;100.00
38939;BME280;24211;49.980;19.776;2023-05-19T12:48:16;100217.69;;;15.75;100.00
38939;BME280;24211;49.980;19.776;2023-05-19T12:50:44;100222.25;;;15.74;100.00
38939;BME280;24211;49.980;19.776;2023-05-19T12:53:11;100217.47;;;15.64;100.00
38939;BME280;24211;49.980;19.776;2023-05-19T12:55:41;100213.56;;;15.60;100.00
38939;BME280;24211;49.980;19.776;2023-05-19T12:58:12;100220.28;;;15.69;100.00
38939;BME280;24211;49.980;19.776;2023-05-19T13:00:45;100222.16;;;15.57;100.00
38939;BME280;24211;49.980;19.776;2023-05-19T13:03:18;100228.00;;;15.54;100.00
38939;BME280;24211;49.980;19.776;2023-05-19T13:05:49;100224.25;;;15.55;100.00
38939;BME280;24211;49.980;19.776;2023-05-19T13:08:19;100222.50;;;15.61;100.00
38939;BME280;24211;49.980;19.776;2023-05-19T13:10:47;100217.00;;;15.67;100.00
38939;BME280;24211;49.980;19.776;2023-05-19T13:13:16;100222.50;;;15.61;100.00
38939;BME280;24211;49.980;19.776;2023-05-19T13:15:45;100219.47;;;15.57;100.00
38939;BME280;24211;49.980;19.776;2023-05-19T13:18:14;100216.97;;;15.44;100.00
38939;BME280;24211;49.980;19.776;2023-05-19T13:20:43;100221.72;;;15.07;100.00
38939;BME280;24211;49.980;19.776;2023-05-19T13:23:12;100222.00;;;15.29;100.00
38939;BME280;24211;49.980;19.776;2023-05-19T13:25:41;100222.34;;;15.44;100.00
38939;BME280;24211;49.980;19.776;2023-05-19T13:28:08;100224.47;;;15.42;100.00
38939;BME280;24211;49.980;19.776;2023-05-19T13:30:38;100220.28;;;15.46;100.00
38939;BME280;24211;49.980;19.776;2023-05-19T13:33:06;100214.28;;;15.44;100.00
38939;BME280;24211;49.980;19.776;2023-05-19T13:35:34;100211.56;;;15.44;100.00
38939;BME280;24211;49.980;19.776;2023-05-19T13:38:06;100206.47;;;15.54;100.00
38939;BME280;24211;49.980;19.776;2023-05-19T13:40:36;100215.66;;;15.24;100.00
38939;BME280;24211;49.980;19.776;2023-05-19T13:43:03;100214.53;;;15.43;100.00
38939;BME280;24211;49.980;19.776;2023-05-19T13:45:31;100213.47;;;15.55;100.00
38939;BME280;24211;49.980;19.776;2023-05-19T13:47:58;100200.81;;;15.44;100.00
38939;BME280;24211;49.980;19.776;2023-05-19T13:50:25;100209.72;;;15.56;100.00
38939;BME280;24211;49.980;19.776;2023-05-19T13:52:52;100208.75;;;15.39;100.00
38939;BME280;24211;49.980;19.776;2023-05-19T13:55:20;100214.88;;;15.46;100.00
38939;BME280;24211;49.980;19.776;2023-05-19T13:57:48;100213.84;;;15.47;100.00
38939;BME280;24211;49.980;19.776;2023-05-19T14:00:16;100214.88;;;15.46;100.00
38939;BME280;24211;49.980;19.776;2023-05-19T14:02:44;100220.59;;;15.27;100.00
38939;BME280;24211;49.980;19.776;2023-05-19T14:05:12;100217.25;;;14.90;100.00